METAR Data
IDs: Format: Raw Decoded Include TAF

Data at: 0902 UTC 26 Jan 2020

KDLL 260855Z AUTO 28008KT 10SM OVC009 M01/M01 A2989 RMK AO2 T10111015
KDLL 260835Z AUTO 29008KT 10SM OVC009 M01/M01 A2989 RMK AO2 T10111014
KDLL 260815Z AUTO 28005KT 5SM BR OVC009 M01/M01 A2989 RMK AO2 T10121012
KDLL 260755Z AUTO 28007KT 2SM -SN OVC006 M01/M01 A2989 RMK AO2 T10121012
KDLL 260735Z AUTO 29007KT 1 3/4SM -DZ OVC006 M01/M01 A2989 RMK AO2 T10101010
KDLL 260715Z AUTO 29008KT 4SM BR OVC006 M01/M01 A2989 RMK AO2 T10101010
KDLL 260655Z AUTO 29007KT 7SM OVC006 M01/M01 A2989 RMK AO2 T10081010
KDLL 260635Z AUTO 28005KT 10SM OVC006 M01/M01 A2988 RMK AO2 T10081010
KDLL 260615Z AUTO 27004KT 10SM OVC006 M01/M01 A2988 RMK AO2 T10081008
KDLL 260555Z AUTO 29004KT 7SM OVC004 M01/M01 A2988 RMK AO2 T10091009 11001 21010 400021010
KDLL 260535Z AUTO 28004KT 5SM BR OVC004 M01/M01 A2988 RMK AO2 T10081008
KDLL 260515Z AUTO 28005KT 3SM -SN OVC006 M01/M01 A2988 RMK AO2 T10081010
KDLL 260455Z AUTO 27005KT 5SM -SN OVC008 M01/M01 A2988 RMK AO2 T10071011
KDLL 260435Z AUTO 28005KT 10SM BKN010 BKN035 OVC047 M01/M01 A2988 RMK AO2 T10061012
KDLL 260415Z AUTO 29006KT 10SM SCT012 BKN040 OVC047 00/M01 A2987 RMK AO2 T10051011
KDLL 260355Z AUTO 30005KT 10SM BKN012 OVC041 00/M01 A2987 RMK AO2 T10051011
KDLL 260335Z AUTO 30007KT 10SM OVC012 00/M01 A2987 RMK AO2 T10031011
KDLL 260315Z AUTO 29007KT 10SM OVC014 00/M01 A2987 RMK AO2 T10021011
KDLL 260255Z AUTO 29006KT 10SM BKN014 OVC019 00/M01 A2987 RMK AO2 T10021010
KDLL 260235Z AUTO 29006KT 10SM SCT014 OVC023 00/M01 A2987 RMK AO2 T10021010
KDLL 260215Z AUTO 30005KT 10SM OVC012 00/M01 A2987 RMK AO2 T10021009
KDLL 260155Z AUTO 29006KT 10SM OVC012 00/M01 A2986 RMK AO2 T10031006
KDLL 260135Z AUTO 28007KT 10SM BKN010 OVC019 00/00 A2987 RMK AO2 T10051005
KDLL 260115Z AUTO 29006KT 3SM UP BKN008 OVC012 00/00 A2987 RMK AO2 T10051005
KDLL 260055Z AUTO 29006KT 3SM UP OVC010 00/00 A2987 RMK AO2 T10031005
KDLL 260035Z AUTO 29006KT 7SM OVC010 00/M01 A2986 RMK AO2 T10021006
KDLL 260015Z AUTO 29006KT 10SM OVC010 00/00 A2986 RMK AO2 T10011005
KDLL 252355Z AUTO 29007KT 10SM OVC010 00/00 A2985 RMK AO2 60001 T10011005 10002 21002
KDLL 252335Z AUTO 29006KT 10SM OVC010 00/00 A2984 RMK AO2 T00001004
KDLL 252315Z AUTO 28005KT 10SM OVC012 00/00 A2984 RMK AO2 T00001003
KDLL 252255Z AUTO 28005KT 10SM OVC012 00/00 A2983 RMK AO2 T00001005
KDLL 252235Z AUTO 27005KT 10SM OVC012 00/00 A2982 RMK AO2 T00001005
KDLL 252215Z AUTO 28005KT 10SM BKN014 OVC019 00/00 A2982 RMK AO2 T00001005
KDLL 252155Z AUTO 28006KT 10SM BKN009 OVC016 00/00 A2982 RMK AO2 T00001005
KDLL 252135Z AUTO 29005KT 10SM UP BKN009 BKN019 OVC026 00/00 A2982 RMK AO2 T00011003
KDLL 252115Z AUTO 30004KT 10SM SCT010 BKN017 OVC028 00/00 A2981 RMK AO2 T00001003
KDLL 252055Z AUTO 30005KT 10SM BKN012 OVC024 00/00 A2981 RMK AO2 60001 T00011003
KDLL 252035Z AUTO 30005KT 5SM UP BKN012 OVC024 00/00 A2981 RMK AO2 T00001005
KDLL 252015Z AUTO 32004KT 10SM OVC016 00/M01 A2981 RMK AO2 T00001006
KDLL 251955Z AUTO 31003KT 10SM OVC021 00/00 A2980 RMK AO2 P0001 T00001005
KDLL 251935Z AUTO 31004KT 10SM SCT006 BKN021 OVC026 00/00 A2981 RMK AO2 P0001 T00001005
KDLL 251915Z AUTO 32005KT 2 1/2SM RA BKN007 BKN013 OVC019 00/00 A2980 RMK AO2 VIS 1 1/2V4 P0001 T10021005
KDLL 251855Z AUTO 33005KT 1 1/4SM UP BKN006 OVC011 00/00 A2981 RMK AO2 T10011005
KDLL 251835Z AUTO 30008KT 10SM OVC011 00/M01 A2980 RMK AO2 T00001006
KDLL 251815Z AUTO 31004KT 10SM BKN009 OVC016 00/00 A2980 RMK AO2 T00021005
KDLL 251755Z AUTO 31006KT 10SM OVC009 00/00 A2981 RMK AO2 T00001004 10000 21006
KDLL 251735Z AUTO 31004KT 7SM OVC009 00/00 A2981 RMK AO2 T00001003
KDLL 251715Z AUTO 32004KT 10SM -SN OVC007 00/00 A2981 RMK AO2 T00001003
KDLL 251655Z AUTO 32005KT 10SM OVC007 00/00 A2982 RMK AO2 T10011003
KDLL 251635Z AUTO 31005KT 10SM OVC007 00/00 A2981 RMK AO2 T10011002
KDLL 251615Z AUTO 31005KT 7SM OVC007 00/00 A2981 RMK AO2 T10021002
KDLL 251555Z AUTO 30005KT 1 1/4SM -SN OVC005 00/00 A2980 RMK AO2 T10031003
KDLL 251535Z AUTO 31003KT 1 3/4SM -SN OVC005 00/00 A2980 RMK AO2 T10051005
KDLL 251515Z AUTO 30004KT 5SM -SN OVC005 00/00 A2980 RMK AO2 T10051005
KDLL 251455Z AUTO 30005KT 1SM -SN OVC005 00/00 A2980 RMK AO2 T10051005
KDLL 251435Z AUTO 31004KT 2 1/2SM -SN OVC005 M01/M01 A2980 RMK AO2 T10061006
KDLL 251415Z AUTO 30004KT 1 1/4SM -SN OVC005 M01/M01 A2980 RMK AO2 T10061006
KDLL 251355Z AUTO 30006KT 1SM -SN OVC005 M01/M01 A2980 RMK AO2 T10061006
KDLL 251335Z AUTO 31004KT 2SM -SN OVC005 M01/M01 A2979 RMK AO2 T10061006
KDLL 251315Z AUTO 31004KT 2SM -SN OVC005 M01/M01 A2979 RMK AO2 T10061006
KDLL 251255Z AUTO 31003KT 1 3/4SM -SN OVC005 M01/M01 A2979 RMK AO2 T10061006
KDLL 251235Z AUTO 30003KT 1 1/2SM -SN OVC005 M01/M01 A2978 RMK AO2 T10061006
KDLL 251215Z AUTO 32004KT 4SM BR OVC005 M01/M01 A2978 RMK AO2 T10061006
KDLL 251155Z AUTO 31004KT 2 1/2SM -SN OVC005 M01/M01 A2978 RMK AO2 70003 T10061006 11005 21007
KDLL 251135Z AUTO 30004KT 1 3/4SM -SN OVC005 M01/M01 A2978 RMK AO2 T10061006
KDLL 251115Z AUTO 31003KT 1 1/2SM -SN OVC005 M01/M01 A2978 RMK AO2 T10061006
KDLL 251055Z AUTO 30003KT 2SM -SN OVC005 M01/M01 A2977 RMK AO2 T10061006
KDLL 251035Z AUTO 32003KT 2SM -SN OVC003 M01/M01 A2977 RMK AO2 T10061006
KDLL 251015Z AUTO 31004KT 1 1/4SM -SN OVC003 M01/M01 A2977 RMK AO2 T10061006
KDLL 250955Z AUTO 32003KT 2SM -SN OVC003 M01/M01 A2977 RMK AO2 T10061006
KDLL 250935Z AUTO 32004KT 2 1/2SM -SN OVC003 M01/M01 A2977 RMK AO2 T10061006
KDLL 250915Z AUTO 32004KT 2 1/2SM -SN OVC003 M01/M01 A2978 RMK AO2 T10061006
KDLL 250855Z AUTO 34004KT 1SM UP OVC003 M01/M01 A2978 RMK AO2 T10061006
KDLL 250835Z AUTO 34003KT 3SM UP OVC003 00/00 A2978 RMK AO2 T10051005
KDLL 250815Z AUTO 34003KT 4SM -SN OVC003 00/00 A2978 RMK AO2 T10051005
KDLL 250755Z AUTO 34004KT 1 1/4SM UP OVC003 M01/M01 A2978 RMK AO2 T10061006
KDLL 250735Z AUTO 33004KT 3SM -SN OVC003 M01/M01 A2978 RMK AO2 T10061006
KDLL 250715Z AUTO 34005KT 7SM OVC003 M01/M01 A2978 RMK AO2 T10061006
KDLL 250655Z AUTO 33005KT 2SM -SN OVC003 M01/M01 A2978 RMK AO2 T10061006
KDLL 250635Z AUTO 34004KT 1 3/4SM -SN OVC003 M01/M01 A2979 RMK AO2 T10071007
KDLL 250615Z AUTO 33005KT 1 1/4SM -SN OVC003 M01/M01 A2979 RMK AO2 T10071007
KDLL 250555Z AUTO 32004KT 1 1/4SM UP OVC003 M01/M01 A2980 RMK AO2 60002 T10061006 11001 21007 400001021
KDLL 250535Z AUTO 33005KT 3/4SM UP OVC003 M01/M01 A2980 RMK AO2 T10061006
KDLL 250515Z AUTO 33004KT 3/4SM UP OVC003 M01/M01 A2980 RMK AO2 T10061006
KDLL 250455Z AUTO 33004KT 1/2SM -SN OVC003 M01/M01 A2981 RMK AO2 P0002 T10071007
KDLL 250435Z AUTO 33004KT 3/4SM -SN OVC003 M01/M01 A2981 RMK AO2 P0001 T10061006
KDLL 250415Z AUTO 33004KT 3/4SM -SN OVC003 M01/M01 A2981 RMK AO2 T10061006
KDLL 250355Z AUTO 33003KT 3/4SM -SN OVC003 M01/M01 A2981 RMK AO2 T10061006
KDLL 250335Z AUTO 35003KT 1SM -SN OVC003 00/00 A2982 RMK AO2 T10051005
KDLL 250315Z AUTO 35004KT 1SM -SN OVC003 00/00 A2982 RMK AO2 T10051005
KDLL 250255Z AUTO 35003KT 1 1/4SM -RA OVC003 00/00 A2982 RMK AO2 T10051005
KDLL 250235Z AUTO 34003KT 1 1/4SM -SN OVC003 00/00 A2982 RMK AO2 T10031003
KDLL 250215Z AUTO 35005KT 1 1/4SM BR OVC003 00/00 A2982 RMK AO2 T10021002
KDLL 250155Z AUTO 36003KT 1 1/4SM BR OVC003 00/00 A2982 RMK AO2 T10031003
KDLL 250135Z AUTO 35003KT 1 1/4SM BR OVC003 00/00 A2983 RMK AO2 T10021002
KDLL 250115Z AUTO 36004KT 1 1/4SM BR OVC003 00/00 A2983 RMK AO2 T10031003
KDLL 250055Z AUTO 01003KT 1 1/4SM BR OVC003 00/00 A2984 RMK AO2 T10021002
KDLL 250035Z AUTO 01004KT 1 1/2SM BR OVC003 00/00 A2984 RMK AO2 T10021002
KDLL 250015Z AUTO 36004KT 2SM BR OVC003 00/00 A2984 RMK AO2 T10011001
KDLL 242355Z AUTO 01004KT 2SM BR OVC003 00/00 A2984 RMK AO2 T10011001 10000 21001
KDLL 242335Z AUTO 01003KT 2 1/2SM BR OVC003 00/00 A2984 RMK AO2 T10011001
KDLL 242315Z AUTO 36005KT 4SM BR OVC003 00/00 A2984 RMK AO2 T00000000
KDLL 242255Z AUTO 01004KT 7SM OVC003 00/00 A2983 RMK AO2 T00000000
KDLL 242235Z AUTO 01005KT 7SM OVC003 00/00 A2983 RMK AO2 T00000000
KDLL 242215Z AUTO 01004KT 5SM BR OVC003 00/00 A2984 RMK AO2 T00000000
KDLL 242155Z AUTO 02005KT 4SM BR OVC003 00/00 A2984 RMK AO2 T00000000
KDLL 242135Z AUTO 02005KT 4SM BR OVC003 00/00 A2984 RMK AO2 T00000000
KDLL 242115Z AUTO 02004KT 3SM BR OVC003 00/00 A2984 RMK AO2 T00000000